createdAt,value
2019-05-06T00:02:22.045Z,6.10
2019-05-06T00:04:48.027Z,6.10
2019-05-06T00:07:14.016Z,6.20
2019-05-06T00:09:39.967Z,6.20
2019-05-06T00:12:05.991Z,6.30
2019-05-06T00:14:33.897Z,6.30
2019-05-06T00:16:58.782Z,6.30
2019-05-06T00:19:24.642Z,6.40
2019-05-06T00:21:50.773Z,6.30
2019-05-06T00:24:17.494Z,6.40
2019-05-06T00:26:44.866Z,6.40
2019-05-06T00:29:10.248Z,6.40
2019-05-06T00:31:36.234Z,6.40
2019-05-06T00:34:04.198Z,6.40
2019-05-06T00:36:28.269Z,6.40
2019-05-06T00:38:54.262Z,6.40
2019-05-06T00:41:20.271Z,6.40
2019-05-06T00:43:46.257Z,6.40
2019-05-06T00:46:13.867Z,6.40
2019-05-06T00:48:38.260Z,6.50
2019-05-06T00:51:04.612Z,6.50
2019-05-06T00:53:30.293Z,6.50
2019-05-06T00:55:56.269Z,6.50
2019-05-06T00:58:23.804Z,6.50
2019-05-06T01:00:48.325Z,6.50
2019-05-06T01:03:14.434Z,6.50
2019-05-06T01:05:40.436Z,6.50
2019-05-06T01:08:06.458Z,6.50
2019-05-06T01:10:34.343Z,6.50
2019-05-06T01:12:59.942Z,6.50
2019-05-06T01:15:26.679Z,6.40
2019-05-06T01:17:53.840Z,6.40
2019-05-06T01:20:19.451Z,6.40
2019-05-06T01:22:45.467Z,6.40
2019-05-06T01:25:14.110Z,6.40
2019-05-06T01:27:38.235Z,6.40
2019-05-06T01:30:04.445Z,6.40
2019-05-06T01:32:30.304Z,6.50
2019-05-06T01:34:56.293Z,6.50
2019-05-06T01:37:24.032Z,6.50
2019-05-06T01:39:49.081Z,6.50
2019-05-06T01:42:15.063Z,6.50
2019-05-06T01:44:41.068Z,6.50
2019-05-06T01:47:07.051Z,6.40
2019-05-06T01:49:34.124Z,6.40
2019-05-06T01:51:59.806Z,6.40
2019-05-06T01:54:26.536Z,6.40
2019-05-06T01:56:53.774Z,6.30
2019-05-06T01:59:19.326Z,6.30
2019-05-06T02:01:57.369Z,6.30
2019-05-06T02:04:13.653Z,6.30
2019-05-06T02:06:37.396Z,6.30
2019-05-06T02:09:04.676Z,6.30
2019-05-06T02:11:30.158Z,6.30
2019-05-06T02:13:56.904Z,6.30
2019-05-06T02:16:24.091Z,6.30
2019-05-06T02:18:48.960Z,6.30
2019-05-06T02:21:14.941Z,6.30
2019-05-06T02:23:40.954Z,6.30
2019-05-06T02:26:06.921Z,6.30
2019-05-06T02:28:34.478Z,6.30
2019-05-06T02:30:59.659Z,6.40
2019-05-06T02:33:26.383Z,6.40
2019-05-06T02:35:54.906Z,6.40
2019-05-06T02:38:19.147Z,6.40
2019-05-06T02:40:45.153Z,6.40
2019-05-06T02:43:13.590Z,6.40
2019-05-06T02:45:37.175Z,6.40
2019-05-06T02:48:04.436Z,6.50
2019-05-06T02:50:29.240Z,6.40
2019-05-06T02:52:55.215Z,6.40
2019-05-06T02:55:23.570Z,6.40
2019-05-06T02:57:48.006Z,6.40
2019-05-06T03:00:13.995Z,6.40
2019-05-06T03:02:46.882Z,6.30
2019-05-06T03:05:06.804Z,6.30
2019-05-06T03:07:35.325Z,6.30
2019-05-06T03:09:59.645Z,6.30
2019-05-06T03:12:25.629Z,6.30
2019-05-06T03:14:53.209Z,6.30
2019-05-06T03:17:18.429Z,6.30
2019-05-06T03:19:46.034Z,6.30
2019-05-06T03:22:13.163Z,6.30
2019-05-06T03:24:36.501Z,6.30
2019-05-06T03:27:04.694Z,6.30
2019-05-06T03:29:29.248Z,6.30
2019-05-06T03:31:56.791Z,6.30
2019-05-06T03:34:49.264Z,6.30
2019-05-06T03:36:49.082Z,6.30
2019-05-06T03:39:14.054Z,6.30
2019-05-06T03:41:43.413Z,6.30
2019-05-06T03:44:06.085Z,6.30
2019-05-06T03:46:33.605Z,6.30
2019-05-06T03:48:58.843Z,6.30
2019-05-06T03:51:24.848Z,6.20
2019-05-06T03:53:54.277Z,6.30
2019-05-06T03:56:19.704Z,6.30
2019-05-06T03:58:43.528Z,6.30
2019-05-06T04:01:09.700Z,6.20
2019-05-06T04:03:47.044Z,6.20
2019-05-06T04:06:04.390Z,6.30
2019-05-06T04:08:28.648Z,6.30
2019-05-06T04:10:54.627Z,6.30
2019-05-06T04:13:23.102Z,6.40
2019-05-06T04:15:47.712Z,6.40
2019-05-06T04:18:13.443Z,6.40
2019-05-06T04:20:39.418Z,6.50
2019-05-06T04:23:06.452Z,6.40
2019-05-06T04:25:33.860Z,6.40
2019-05-06T04:27:58.223Z,6.40
2019-05-06T04:30:24.534Z,6.40
2019-05-06T04:32:52.865Z,6.40
2019-05-06T04:35:16.998Z,6.50
2019-05-06T04:37:43.111Z,6.50
2019-05-06T04:40:09.752Z,6.60
2019-05-06T04:42:35.748Z,6.60
2019-05-06T04:45:04.698Z,6.60
2019-05-06T04:47:27.791Z,6.70
2019-05-06T04:49:53.783Z,6.70
2019-05-06T04:52:22.904Z,6.70
2019-05-06T04:54:46.535Z,6.70
2019-05-06T04:57:13.262Z,6.70
2019-05-06T04:59:39.286Z,6.70
2019-05-06T05:02:05.360Z,6.70
2019-05-06T05:04:33.579Z,6.80
2019-05-06T05:06:57.434Z,6.80
2019-05-06T05:09:23.421Z,6.80
2019-05-06T05:11:49.405Z,6.90
2019-05-06T05:14:15.401Z,7.00
2019-05-06T05:16:42.092Z,7.00
2019-05-06T05:19:07.427Z,7.20
2019-05-06T05:21:33.420Z,7.40
2019-05-06T05:24:01.981Z,7.60
2019-05-06T05:26:26.281Z,7.60
2019-05-06T05:28:53.229Z,7.70
2019-05-06T05:31:19.122Z,7.90
2019-05-06T05:33:45.106Z,7.90
2019-05-06T05:36:12.426Z,8.00
2019-05-06T05:38:37.173Z,8.00
2019-05-06T05:41:03.226Z,7.90
2019-05-06T05:43:29.192Z,8.00
2019-05-06T05:45:55.210Z,8.10
2019-05-06T05:48:23.260Z,8.20
2019-05-06T05:50:48.043Z,8.30
2019-05-06T05:53:14.027Z,8.30
2019-05-06T05:55:40.040Z,8.50
2019-05-06T05:58:06.056Z,8.70
2019-05-06T06:00:32.495Z,8.80
2019-05-06T06:02:58.077Z,9.00
2019-05-06T06:05:24.834Z,9.30
2019-05-06T06:07:52.987Z,9.50
2019-05-06T06:10:17.600Z,9.50
2019-05-06T06:12:43.595Z,9.70
2019-05-06T06:15:09.590Z,9.90
2019-05-06T06:17:35.557Z,10.30
2019-05-06T06:20:02.628Z,10.40
2019-05-06T06:22:27.593Z,10.40
2019-05-06T06:24:53.579Z,10.60
2019-05-06T06:27:22.229Z,11.20
2019-05-06T06:29:46.365Z,11.20
2019-05-06T06:32:13.758Z,11.40
2019-05-06T06:34:38.431Z,11.70
2019-05-06T06:37:05.165Z,12.20
2019-05-06T06:39:32.657Z,12.20
2019-05-06T06:41:57.188Z,12.20
2019-05-06T06:44:23.158Z,12.90
2019-05-06T06:46:49.207Z,13.70
2019-05-06T06:49:15.180Z,14.90
2019-05-06T06:51:42.547Z,15.90
2019-05-06T06:54:07.258Z,16.30
2019-05-06T06:56:33.277Z,15.80
2019-05-06T06:58:59.248Z,15.70
2019-05-06T07:01:25.242Z,15.60
2019-05-06T07:03:52.795Z,15.00
2019-05-06T07:06:17.324Z,14.40
2019-05-06T07:08:44.082Z,14.10
2019-05-06T07:11:10.109Z,14.00
2019-05-06T07:13:36.080Z,14.60
2019-05-06T07:16:02.905Z,14.60
2019-05-06T07:18:28.073Z,13.70
2019-05-06T07:20:54.052Z,13.00
2019-05-06T07:23:22.042Z,12.70
2019-05-06T07:25:46.061Z,12.30
2019-05-06T07:28:13.589Z,11.70
2019-05-06T07:30:38.862Z,11.70
2019-05-06T07:33:04.878Z,11.40
2019-05-06T07:35:38.426Z,11.40
2019-05-06T07:37:56.924Z,11.30
2019-05-06T07:40:22.918Z,11.30
2019-05-06T07:42:48.935Z,11.10
2019-05-06T07:45:14.908Z,10.90
2019-05-06T07:47:42.598Z,10.80
2019-05-06T07:50:06.914Z,10.50
2019-05-06T07:52:33.646Z,10.40
2019-05-06T07:55:02.378Z,10.50
2019-05-06T07:57:26.471Z,10.50
2019-05-06T07:59:52.676Z,10.60
2019-05-06T08:02:18.512Z,10.60
2019-05-06T08:04:44.508Z,10.70
2019-05-06T08:07:12.464Z,10.70
2019-05-06T08:09:36.573Z,10.60
2019-05-06T08:12:02.883Z,10.30
2019-05-06T08:14:28.631Z,10.30
2019-05-06T08:16:54.612Z,10.20
2019-05-06T08:19:22.750Z,10.30
2019-05-06T08:21:47.391Z,10.20
2019-05-06T08:24:13.419Z,10.00
2019-05-06T08:26:39.387Z,9.70
2019-05-06T08:29:05.397Z,9.50
2019-05-06T08:31:32.691Z,9.40
2019-05-06T08:33:57.454Z,9.50
2019-05-06T08:36:23.436Z,9.40
2019-05-06T08:38:49.444Z,9.30
2019-05-06T08:41:16.169Z,9.50
2019-05-06T08:43:42.261Z,9.50
2019-05-06T08:46:08.216Z,9.40
2019-05-06T08:48:34.958Z,9.40
2019-05-06T08:51:02.711Z,9.30
2019-05-06T08:53:27.731Z,9.20
2019-05-06T08:55:53.682Z,9.40
2019-05-06T08:58:22.050Z,9.50
2019-05-06T09:00:46.468Z,9.80
2019-05-06T09:03:14.266Z,9.80
2019-05-06T09:05:38.492Z,9.70
2019-05-06T09:08:04.465Z,9.70
2019-05-06T09:10:32.396Z,9.70
2019-05-06T09:12:56.516Z,9.70
2019-05-06T09:15:22.528Z,9.80
2019-05-06T09:17:48.496Z,9.80
2019-05-06T09:20:14.485Z,10.00
2019-05-06T09:22:42.778Z,10.10
2019-05-06T09:25:06.518Z,10.40
2019-05-06T09:27:32.806Z,11.20
2019-05-06T09:29:58.552Z,12.30
2019-05-06T09:32:24.537Z,13.00
2019-05-06T09:34:52.663Z,14.10
2019-05-06T09:37:16.545Z,15.50
2019-05-06T09:39:43.072Z,16.50
2019-05-06T09:42:08.581Z,16.60
2019-05-06T09:44:34.580Z,16.40
2019-05-06T09:47:02.411Z,15.80
2019-05-06T09:49:26.611Z,15.40
2019-05-06T09:51:52.970Z,15.40
2019-05-06T09:54:18.608Z,15.40
2019-05-06T09:56:44.581Z,14.90
2019-05-06T09:59:12.794Z,13.90
2019-05-06T10:01:37.317Z,11.30
2019-05-06T10:04:04.054Z,10.90
2019-05-06T10:06:32.824Z,10.00
2019-05-06T10:08:56.846Z,9.90
2019-05-06T10:11:22.857Z,9.40
2019-05-06T10:13:49.556Z,9.20
2019-05-06T10:16:15.574Z,9.20
2019-05-06T10:18:41.541Z,9.40
2019-05-06T10:21:08.292Z,10.40
2019-05-06T10:23:34.281Z,10.40
2019-05-06T10:26:04.617Z,11.40
2019-05-06T10:28:27.096Z,11.40
2019-05-06T10:30:53.105Z,11.60
2019-05-06T10:33:19.099Z,11.50
2019-05-06T10:35:45.113Z,12.20
2019-05-06T10:38:12.393Z,12.90
2019-05-06T10:40:44.096Z,13.50
2019-05-06T10:43:03.200Z,14.30
2019-05-06T10:45:32.196Z,14.20
2019-05-06T10:47:56.009Z,14.10
2019-05-06T10:50:22.991Z,14.00
2019-05-06T10:52:48.057Z,13.60
2019-05-06T10:55:14.032Z,13.40
2019-05-06T10:57:40.465Z,13.40
2019-05-06T11:00:06.100Z,13.60
2019-05-06T11:02:32.848Z,13.40
2019-05-06T11:04:58.835Z,13.40
2019-05-06T11:07:31.864Z,13.50
2019-05-06T11:09:53.106Z,13.50
2019-05-06T11:12:16.947Z,13.20
2019-05-06T11:14:43.650Z,12.60
2019-05-06T11:17:09.661Z,12.60
2019-05-06T11:19:35.664Z,12.40
2019-05-06T11:22:03.663Z,12.10
2019-05-06T11:24:28.476Z,11.40
2019-05-06T11:26:55.233Z,11.10
2019-05-06T11:29:21.207Z,11.10
2019-05-06T11:31:47.217Z,11.00
2019-05-06T11:34:13.205Z,11.00
2019-05-06T11:36:39.933Z,11.10
2019-05-06T11:39:05.952Z,11.10
2019-05-06T11:41:32.707Z,11.30
2019-05-06T11:43:58.715Z,11.30
2019-05-06T11:46:25.471Z,11.20
2019-05-06T11:48:52.339Z,11.30
2019-05-06T11:51:18.278Z,11.30
2019-05-06T11:53:44.261Z,11.60
2019-05-06T11:56:12.773Z,12.00
2019-05-06T11:58:37.010Z,12.00
2019-05-06T12:01:03.721Z,11.50
2019-05-06T12:03:29.724Z,11.50
2019-05-06T12:05:55.698Z,11.40
2019-05-06T12:08:22.456Z,11.30
2019-05-06T12:10:48.431Z,11.20
2019-05-06T12:13:14.439Z,11.10
2019-05-06T12:15:40.405Z,11.00
2019-05-06T12:18:07.164Z,11.20
2019-05-06T12:20:33.896Z,11.20
2019-05-06T12:23:04.226Z,11.20
2019-05-06T12:25:26.668Z,11.20
2019-05-06T12:27:52.789Z,11.40
2019-05-06T12:30:18.725Z,11.40
2019-05-06T12:32:44.739Z,11.50
2019-05-06T12:35:12.460Z,11.60
2019-05-06T12:37:36.787Z,11.70
2019-05-06T12:40:03.428Z,11.90
2019-05-06T12:42:28.825Z,12.00
2019-05-06T12:44:55.573Z,11.80
2019-05-06T12:47:21.559Z,11.80
2019-05-06T12:49:47.573Z,11.80
2019-05-06T12:52:13.572Z,11.90
2019-05-06T12:54:39.608Z,11.80
2019-05-06T12:57:05.590Z,11.50
2019-05-06T12:59:31.622Z,11.10
2019-05-06T13:01:57.599Z,10.70
2019-05-06T13:04:44.469Z,10.40
2019-05-06T13:06:49.639Z,10.20
2019-05-06T13:09:15.658Z,10.10
2019-05-06T13:11:43.112Z,10.20
2019-05-06T13:14:08.486Z,10.20
2019-05-06T13:16:34.457Z,10.30
2019-05-06T13:19:00.465Z,10.10
2019-05-06T13:21:26.446Z,9.80
2019-05-06T13:23:52.467Z,9.70
2019-05-06T13:26:18.443Z,9.70
2019-05-06T13:28:44.479Z,9.60
2019-05-06T13:31:19.391Z,9.60
2019-05-06T13:33:37.317Z,9.60
2019-05-06T13:36:03.345Z,9.60
2019-05-06T13:38:29.330Z,9.60
2019-05-06T13:40:57.666Z,9.70
2019-05-06T13:43:23.515Z,9.70
2019-05-06T13:45:47.445Z,9.80
2019-05-06T13:48:13.415Z,9.70
2019-05-06T13:50:39.438Z,9.90
2019-05-06T13:53:11.538Z,10.20
2019-05-06T13:55:32.238Z,10.10
2019-05-06T13:57:58.219Z,10.40
2019-05-06T14:00:24.954Z,10.90
2019-05-06T14:02:53.155Z,10.90
2019-05-06T14:05:17.725Z,10.90
2019-05-06T14:07:44.503Z,11.10
2019-05-06T14:10:10.528Z,11.10
2019-05-06T14:12:36.545Z,11.30
2019-05-06T14:15:04.316Z,11.50
2019-05-06T14:17:28.609Z,11.70
2019-05-06T14:19:54.627Z,11.90
2019-05-06T14:22:23.043Z,12.00
2019-05-06T14:24:46.648Z,11.90
2019-05-06T14:27:12.665Z,11.90
2019-05-06T14:29:38.679Z,11.80
2019-05-06T14:32:05.407Z,12.00
2019-05-06T14:34:32.549Z,12.00
2019-05-06T14:36:57.464Z,11.90
2019-05-06T14:39:23.966Z,11.90
2019-05-06T14:41:49.513Z,11.70
2019-05-06T14:44:15.476Z,11.70
2019-05-06T14:46:42.638Z,11.50
2019-05-06T14:49:07.553Z,11.60
2019-05-06T14:51:34.328Z,11.60
2019-05-06T14:54:01.061Z,11.50
2019-05-06T14:56:27.068Z,11.50
2019-05-06T14:58:53.063Z,11.40
2019-05-06T15:01:19.107Z,11.20
2019-05-06T15:03:45.099Z,11.20
2019-05-06T15:06:13.008Z,11.10
2019-05-06T15:08:37.159Z,11.20
2019-05-06T15:11:03.320Z,11.20
2019-05-06T15:13:29.199Z,11.20
2019-05-06T15:15:55.221Z,11.20
2019-05-06T15:18:22.453Z,11.10
2019-05-06T15:20:47.292Z,11.00
2019-05-06T15:23:14.054Z,11.00
2019-05-06T15:25:40.049Z,11.00
2019-05-06T15:28:06.034Z,11.10
2019-05-06T15:30:34.059Z,11.10
2019-05-06T15:32:58.060Z,11.10
2019-05-06T15:35:24.829Z,10.90
2019-05-06T15:37:53.159Z,10.90
2019-05-06T15:40:30.750Z,10.70
2019-05-06T15:42:42.894Z,10.60
2019-05-06T15:45:09.599Z,10.40
2019-05-06T15:47:35.607Z,10.40
2019-05-06T15:50:01.616Z,10.20
2019-05-06T15:52:27.632Z,10.10
2019-05-06T15:54:53.620Z,9.90
2019-05-06T15:57:19.646Z,9.80
2019-05-06T15:59:45.639Z,9.80
2019-05-06T16:02:12.409Z,9.80
2019-05-06T16:04:38.394Z,9.80
2019-05-06T16:07:04.400Z,9.80
2019-05-06T16:09:32.325Z,9.80
2019-05-06T16:11:56.446Z,9.80
2019-05-06T16:14:22.980Z,9.80
2019-05-06T16:16:48.517Z,9.70
2019-05-06T16:19:14.516Z,9.70
2019-05-06T16:21:43.004Z,9.60
2019-05-06T16:24:07.313Z,9.50
2019-05-06T16:26:33.336Z,9.50
2019-05-06T16:28:59.321Z,9.60
2019-05-06T16:31:25.312Z,9.60
2019-05-06T16:33:52.394Z,9.40
2019-05-06T16:36:18.857Z,9.50
2019-05-06T16:38:44.804Z,9.50
2019-05-06T16:41:13.884Z,9.50
2019-05-06T16:43:37.555Z,9.70
2019-05-06T16:46:04.307Z,9.70
2019-05-06T16:48:30.321Z,9.70
2019-05-06T16:50:56.333Z,9.70
2019-05-06T16:53:22.978Z,9.60
2019-05-06T16:55:49.091Z,9.50
2019-05-06T16:58:15.064Z,9.50
2019-05-06T17:00:42.938Z,9.50
2019-05-06T17:03:07.120Z,9.60
2019-05-06T17:05:33.716Z,9.60
2019-05-06T17:07:59.456Z,9.60
2019-05-06T17:10:25.196Z,9.50
2019-05-06T17:12:53.495Z,9.40
2019-05-06T17:15:18.016Z,9.40
2019-05-06T17:17:47.009Z,9.30
2019-05-06T17:20:12.157Z,9.40
2019-05-06T17:22:36.809Z,9.40
2019-05-06T17:25:02.765Z,9.40
2019-05-06T17:27:28.806Z,9.30
2019-05-06T17:30:01.574Z,9.30
2019-05-06T17:32:27.572Z,9.30
2019-05-06T17:34:57.383Z,9.30
2019-05-06T17:37:20.376Z,9.20
2019-05-06T17:39:46.391Z,9.30
2019-05-06T17:42:14.101Z,9.30
2019-05-06T17:44:38.414Z,9.30
2019-05-06T17:47:05.137Z,9.10
2019-05-06T17:49:31.151Z,9.10
2019-05-06T17:51:57.130Z,9.20
2019-05-06T17:54:25.746Z,9.00
2019-05-06T17:56:49.181Z,9.00
2019-05-06T17:59:15.182Z,9.00
2019-05-06T18:01:42.040Z,9.00
2019-05-06T18:04:07.215Z,9.00
2019-05-06T18:06:33.944Z,9.00
2019-05-06T18:09:02.534Z,9.00
2019-05-06T18:11:27.525Z,9.00
2019-05-06T18:13:54.276Z,9.00
2019-05-06T18:16:22.276Z,9.00
2019-05-06T18:18:47.086Z,9.00
2019-05-06T18:21:13.066Z,9.00
2019-05-06T18:23:39.816Z,8.90
2019-05-06T18:26:05.807Z,8.90
2019-05-06T18:28:32.841Z,8.80
2019-05-06T18:30:58.596Z,8.80
2019-05-06T18:33:25.364Z,8.70
2019-05-06T18:35:53.518Z,8.70
2019-05-06T18:38:17.406Z,8.70
2019-05-06T18:40:43.422Z,8.70
2019-05-06T18:43:10.166Z,8.60
2019-05-06T18:45:36.155Z,8.60
2019-05-06T18:48:02.774Z,8.60
2019-05-06T18:50:28.961Z,8.60
2019-05-06T18:52:54.926Z,8.50
2019-05-06T18:55:22.348Z,8.60
2019-05-06T18:57:47.023Z,8.50
2019-05-06T19:00:13.772Z,8.50
2019-05-06T19:02:39.767Z,8.50
2019-05-06T19:05:06.539Z,8.50
2019-05-06T19:07:33.409Z,8.50
2019-05-06T19:09:58.609Z,8.40
2019-05-06T19:12:30.477Z,8.40
2019-05-06T19:14:52.512Z,8.40
2019-05-06T19:17:16.670Z,8.40
2019-05-06T19:19:42.873Z,8.40
2019-05-06T19:22:08.725Z,8.40
2019-05-06T19:24:34.744Z,8.30
2019-05-06T19:27:02.099Z,8.30
2019-05-06T19:29:26.804Z,8.30
2019-05-06T19:31:52.844Z,8.20
2019-05-06T19:34:18.838Z,8.20
2019-05-06T19:36:44.838Z,8.20
2019-05-06T19:39:12.694Z,8.10
2019-05-06T19:41:36.915Z,8.20
2019-05-06T19:44:02.909Z,8.10
2019-05-06T19:46:29.651Z,8.00
2019-05-06T19:48:55.686Z,8.00
2019-05-06T19:51:22.533Z,7.90
2019-05-06T19:53:47.716Z,7.90
2019-05-06T19:56:14.459Z,7.80
2019-05-06T19:58:42.866Z,7.80
2019-05-06T20:01:07.234Z,7.80
2019-05-06T20:03:33.217Z,7.70
2019-05-06T20:05:59.224Z,7.70
2019-05-06T20:08:25.200Z,7.60
2019-05-06T20:10:52.881Z,7.60
2019-05-06T20:13:17.239Z,7.50
2019-05-06T20:15:43.258Z,7.50
2019-05-06T20:18:09.987Z,7.40
2019-05-06T20:20:36.719Z,7.30
2019-05-06T20:23:03.532Z,7.30
2019-05-06T20:25:30.271Z,7.30
2019-05-06T20:27:56.269Z,7.30
2019-05-06T20:30:22.248Z,7.20
2019-05-06T20:32:48.262Z,7.10
2019-05-06T20:35:14.224Z,7.10
2019-05-06T20:37:42.467Z,7.00
2019-05-06T20:40:06.231Z,6.90
2019-05-06T20:42:32.774Z,6.80
2019-05-06T20:44:58.999Z,6.70
2019-05-06T20:47:25.759Z,6.60
2019-05-06T20:49:52.601Z,6.60
2019-05-06T20:52:18.524Z,6.40
2019-05-06T20:54:44.506Z,6.40
2019-05-06T20:57:12.289Z,6.40
2019-05-06T20:59:36.532Z,6.20
2019-05-06T21:02:03.065Z,6.20
2019-05-06T21:04:28.535Z,6.10
2019-05-06T21:06:55.251Z,5.90
2019-05-06T21:09:23.263Z,5.90
2019-05-06T21:11:48.058Z,5.90
2019-05-06T21:14:14.792Z,5.70
2019-05-06T21:16:42.235Z,5.70
2019-05-06T21:19:08.279Z,5.60
2019-05-06T21:21:34.983Z,5.60
2019-05-06T21:24:02.019Z,5.60
2019-05-06T21:26:26.988Z,5.60
2019-05-06T21:28:52.978Z,5.50
2019-05-06T21:31:18.944Z,5.40
2019-05-06T21:33:44.941Z,5.40
2019-05-06T21:36:12.391Z,5.30
2019-05-06T21:38:36.959Z,5.20
2019-05-06T21:41:03.686Z,5.10
2019-05-06T21:43:43.827Z,5.10
2019-05-06T21:45:55.680Z,5.10
2019-05-06T21:48:22.199Z,5.00
2019-05-06T21:50:47.733Z,5.00
2019-05-06T21:53:14.672Z,4.90
2019-05-06T21:55:39.761Z,4.90
2019-05-06T21:58:06.499Z,4.80
2019-05-06T22:00:33.222Z,4.70
2019-05-06T22:02:59.183Z,4.70
2019-05-06T22:05:25.163Z,4.70
2019-05-06T22:07:52.594Z,4.70
2019-05-06T22:10:17.176Z,4.70
2019-05-06T22:12:43.529Z,4.70
2019-05-06T22:15:09.202Z,4.60
2019-05-06T22:17:35.167Z,4.60
2019-05-06T22:20:03.208Z,4.50
2019-05-06T22:22:27.946Z,4.50
2019-05-06T22:24:57.523Z,4.40
2019-05-06T22:27:21.979Z,4.40
2019-05-06T22:29:47.565Z,4.30
2019-05-06T22:32:14.893Z,4.30
2019-05-06T22:34:42.346Z,4.30
2019-05-06T22:37:07.163Z,4.20
2019-05-06T22:39:34.290Z,4.20
2019-05-06T22:41:59.164Z,4.20
2019-05-06T22:44:25.160Z,4.10
2019-05-06T22:46:51.882Z,4.10
2019-05-06T22:49:18.627Z,4.00
2019-05-06T22:51:45.343Z,4.00
2019-05-06T22:54:11.392Z,4.00
2019-05-06T22:56:38.111Z,4.00
2019-05-06T22:59:04.098Z,3.90
2019-05-06T23:01:32.337Z,3.90
2019-05-06T23:03:56.149Z,4.00
2019-05-06T23:06:22.152Z,4.00
2019-05-06T23:08:48.150Z,4.00
2019-05-06T23:11:15.466Z,4.00
2019-05-06T23:13:41.903Z,3.90
2019-05-06T23:16:06.364Z,3.90
2019-05-06T23:18:32.342Z,3.80
2019-05-06T23:20:59.104Z,3.80
2019-05-06T23:23:25.083Z,3.80
2019-05-06T23:25:52.491Z,3.80
2019-05-06T23:28:17.122Z,3.70
2019-05-06T23:30:43.163Z,3.70
2019-05-06T23:33:09.131Z,3.70
2019-05-06T23:35:35.114Z,3.70
2019-05-06T23:38:02.862Z,3.60
2019-05-06T23:40:27.130Z,3.60
2019-05-06T23:42:53.082Z,3.60
2019-05-06T23:45:19.850Z,3.50
2019-05-06T23:47:46.564Z,3.50
2019-05-06T23:50:13.322Z,3.40
2019-05-06T23:52:40.036Z,3.40
2019-05-06T23:55:05.996Z,3.40
2019-05-06T23:57:32.582Z,3.40
2019-05-06T23:59:58.046Z,3.40
